createdAt,value
2022-08-03T00:03:21.786Z,24.20
2022-08-03T00:08:23.659Z,24.10
2022-08-03T00:13:25.740Z,23.80
2022-08-03T00:18:27.392Z,23.80
2022-08-03T00:23:51.537Z,23.80
2022-08-03T00:28:50.702Z,23.80
2022-08-03T00:33:59.264Z,23.80
2022-08-03T00:39:01.721Z,23.60
2022-08-03T00:44:03.429Z,23.50
2022-08-03T00:49:05.110Z,23.30
2022-08-03T00:54:06.768Z,23.40
2022-08-03T00:59:10.093Z,23.40
2022-08-03T01:04:11.721Z,23.30
2022-08-03T01:09:26.935Z,23.30
2022-08-03T01:14:54.998Z,23.30
2022-08-03T01:20:00.429Z,23.20
2022-08-03T01:25:10.052Z,23.10
2022-08-03T01:30:12.492Z,23.10
2022-08-03T01:35:19.863Z,23.10
2022-08-03T01:40:22.143Z,23.10
2022-08-03T01:45:24.313Z,23.00
2022-08-03T01:50:27.864Z,22.90
2022-08-03T01:55:32.067Z,22.90
2022-08-03T02:00:36.727Z,22.90
2022-08-03T02:05:39.740Z,22.80
2022-08-03T02:10:42.195Z,22.90
2022-08-03T02:15:44.825Z,22.70
2022-08-03T02:20:47.038Z,22.70
2022-08-03T02:25:52.920Z,22.50
2022-08-03T02:30:55.679Z,22.50
2022-08-03T02:35:57.844Z,22.50
2022-08-03T02:41:01.059Z,22.50
2022-08-03T02:46:02.716Z,22.40
2022-08-03T02:51:04.701Z,22.40
2022-08-03T02:56:07.172Z,22.40
2022-08-03T03:01:09.259Z,22.30
2022-08-03T03:06:11.076Z,22.20
2022-08-03T03:11:13.903Z,22.30
2022-08-03T03:16:15.941Z,22.30
2022-08-03T03:21:18.397Z,22.10
2022-08-03T03:26:20.137Z,22.00
2022-08-03T03:31:21.881Z,22.10
2022-08-03T03:36:23.627Z,22.00
2022-08-03T03:41:25.629Z,21.90
2022-08-03T03:46:27.292Z,22.00
2022-08-03T03:51:28.961Z,21.80
2022-08-03T03:56:30.653Z,21.70
2022-08-03T04:01:32.365Z,21.70
2022-08-03T04:06:52.405Z,21.70
2022-08-03T04:11:54.859Z,21.40
2022-08-03T04:16:58.933Z,21.50
2022-08-03T04:22:02.523Z,21.50
2022-08-03T04:27:06.961Z,21.50
2022-08-03T04:32:09.268Z,21.30
2022-08-03T04:37:11.816Z,21.30
2022-08-03T04:42:14.011Z,21.10
2022-08-03T04:47:15.804Z,21.10
2022-08-03T04:52:19.050Z,21.30
2022-08-03T04:57:23.090Z,21.40
2022-08-03T05:02:25.293Z,22.00
2022-08-03T05:07:35.522Z,22.10
2022-08-03T05:12:37.760Z,22.10
2022-08-03T05:17:39.669Z,22.10
2022-08-03T05:22:41.318Z,22.30
2022-08-03T05:27:42.950Z,22.40
2022-08-03T05:32:44.767Z,22.60
2022-08-03T05:37:54.544Z,22.60
2022-08-03T05:42:57.021Z,22.70
2022-08-03T05:48:00.168Z,22.90
2022-08-03T05:53:01.952Z,22.90
2022-08-03T05:58:05.098Z,23.00
2022-08-03T06:03:07.000Z,23.20
2022-08-03T06:08:08.624Z,23.10
2022-08-03T06:13:10.429Z,23.20
2022-08-03T06:18:12.083Z,23.40
2022-08-03T06:23:17.645Z,23.50
2022-08-03T06:28:51.893Z,23.60
2022-08-03T06:33:48.552Z,23.60
2022-08-03T06:39:03.298Z,23.70
2022-08-03T06:44:05.040Z,23.80
2022-08-03T06:49:07.072Z,24.10
2022-08-03T06:54:08.892Z,24.10
2022-08-03T06:59:10.531Z,24.10
2022-08-03T07:04:32.231Z,24.20
2022-08-03T07:09:33.896Z,24.50
2022-08-03T07:14:35.554Z,24.50
2022-08-03T07:19:37.323Z,24.50
2022-08-03T07:24:38.967Z,24.60
2022-08-03T07:29:40.629Z,24.60
2022-08-03T07:34:42.304Z,24.60
2022-08-03T07:39:44.731Z,24.70
2022-08-03T07:44:46.388Z,24.70
2022-08-03T07:49:48.035Z,24.70
2022-08-03T07:54:49.773Z,24.80
2022-08-03T08:00:01.938Z,24.80
2022-08-03T08:05:05.893Z,24.80
2022-08-03T08:10:10.083Z,24.80
2022-08-03T08:15:12.094Z,24.90
2022-08-03T08:20:18.905Z,24.90
2022-08-03T08:25:31.535Z,24.90
2022-08-03T08:30:33.659Z,24.90
2022-08-03T08:35:37.240Z,24.90
2022-08-03T08:40:39.177Z,25.00
2022-08-03T08:45:41.255Z,25.00
2022-08-03T08:50:43.104Z,25.10
2022-08-03T08:55:58.513Z,25.10
2022-08-03T09:01:01.649Z,25.10
2022-08-03T09:06:03.560Z,25.10
2022-08-03T09:11:05.347Z,25.10
2022-08-03T09:16:13.387Z,25.20
2022-08-03T09:21:32.846Z,25.10
2022-08-03T09:26:36.441Z,25.20
2022-08-03T09:31:44.718Z,25.20
2022-08-03T09:36:51.030Z,25.30
2022-08-03T09:42:06.068Z,25.20
2022-08-03T09:47:08.394Z,25.30
2022-08-03T09:52:39.295Z,25.30
2022-08-03T09:57:47.165Z,25.30
2022-08-03T10:02:50.606Z,25.30
2022-08-03T10:07:52.421Z,25.40
2022-08-03T10:12:54.153Z,25.40
2022-08-03T10:17:55.784Z,25.40
2022-08-03T10:22:58.049Z,25.40
2022-08-03T10:28:02.186Z,25.40
2022-08-03T10:33:49.263Z,25.40
2022-08-03T10:38:46.785Z,25.40
2022-08-03T10:43:59.434Z,25.40
2022-08-03T10:49:01.455Z,25.50
2022-08-03T10:54:03.377Z,25.50
2022-08-03T10:59:06.074Z,25.50
2022-08-03T11:04:17.354Z,25.50
2022-08-03T11:09:19.080Z,25.60
2022-08-03T11:14:21.556Z,25.60
2022-08-03T11:19:27.692Z,25.60
2022-08-03T11:24:43.643Z,25.60
2022-08-03T11:29:54.200Z,25.60
2022-08-03T11:35:07.170Z,25.60
2022-08-03T11:40:28.813Z,25.60
2022-08-03T11:45:31.303Z,25.60
2022-08-03T11:50:36.914Z,25.70
2022-08-03T11:55:38.649Z,25.70
2022-08-03T12:00:40.773Z,25.70
2022-08-03T12:05:52.791Z,25.70
2022-08-03T12:10:55.540Z,25.70
2022-08-03T12:15:59.149Z,25.70
2022-08-03T12:21:06.137Z,25.70
2022-08-03T12:26:09.772Z,25.70
2022-08-03T12:31:11.484Z,25.80
2022-08-03T12:36:13.126Z,25.80
2022-08-03T12:41:16.645Z,25.80
2022-08-03T12:46:19.013Z,25.80
2022-08-03T12:51:20.649Z,25.80
2022-08-03T12:56:22.465Z,25.80
2022-08-03T13:01:24.538Z,25.80
2022-08-03T13:06:27.691Z,25.90
2022-08-03T13:11:50.661Z,25.90
2022-08-03T13:16:51.191Z,25.90
2022-08-03T13:22:03.703Z,25.90
2022-08-03T13:27:58.910Z,25.90
2022-08-03T13:32:29.167Z,25.90
2022-08-03T13:37:32.276Z,25.90
2022-08-03T13:42:35.025Z,25.90
2022-08-03T13:47:37.841Z,26.00
2022-08-03T13:52:39.509Z,26.00
2022-08-03T13:58:11.502Z,26.00
2022-08-03T14:03:10.854Z,26.00
2022-08-03T14:08:15.287Z,26.00
2022-08-03T14:13:18.164Z,26.00
2022-08-03T14:18:28.805Z,26.00
2022-08-03T14:23:35.836Z,26.00
2022-08-03T14:28:37.752Z,26.00
2022-08-03T14:33:39.688Z,26.10
2022-08-03T14:38:41.333Z,26.10
2022-08-03T14:44:01.310Z,26.10
2022-08-03T14:50:32.077Z,26.10
2022-08-03T14:54:26.986Z,26.10
2022-08-03T14:59:28.706Z,26.10
2022-08-03T15:04:50.341Z,26.10
2022-08-03T15:09:52.388Z,26.10
2022-08-03T15:14:54.201Z,26.10
2022-08-03T15:20:00.264Z,26.20
2022-08-03T15:26:31.914Z,26.20
2022-08-03T15:30:29.719Z,26.20
2022-08-03T15:35:31.512Z,26.20
2022-08-03T15:40:33.241Z,26.20
2022-08-03T15:45:35.457Z,26.20
2022-08-03T15:50:38.490Z,26.20
2022-08-03T15:55:40.535Z,26.20
2022-08-03T16:00:42.805Z,26.30
2022-08-03T16:05:44.450Z,26.30
2022-08-03T16:10:46.852Z,26.30
2022-08-03T16:15:50.521Z,26.30
2022-08-03T16:20:52.181Z,26.30
2022-08-03T16:25:53.882Z,26.30
2022-08-03T16:30:55.538Z,26.40
2022-08-03T16:35:57.524Z,26.40
2022-08-03T16:40:59.316Z,26.40
2022-08-03T16:46:01.173Z,26.50
2022-08-03T16:51:03.035Z,26.50
2022-08-03T16:56:09.856Z,26.50
2022-08-03T17:01:22.334Z,26.50
2022-08-03T17:06:26.845Z,26.60
2022-08-03T17:11:46.742Z,26.50
2022-08-03T17:16:53.086Z,26.60
2022-08-03T17:22:01.162Z,26.60
2022-08-03T17:27:08.962Z,26.60
2022-08-03T17:32:13.899Z,26.70
2022-08-03T17:37:49.896Z,26.70
2022-08-03T17:42:42.913Z,26.70
2022-08-03T17:47:44.925Z,26.70
2022-08-03T17:53:07.138Z,26.70
2022-08-03T17:58:32.820Z,26.70
2022-08-03T18:03:57.972Z,26.70
2022-08-03T18:09:00.113Z,26.80
2022-08-03T18:14:16.523Z,26.80
2022-08-03T18:19:19.005Z,26.80
2022-08-03T18:24:21.201Z,26.90
2022-08-03T18:29:27.650Z,26.90
2022-08-03T18:34:34.246Z,26.90
2022-08-03T18:39:49.346Z,26.80
2022-08-03T18:44:53.812Z,26.80
2022-08-03T18:50:33.361Z,26.80
2022-08-03T18:55:38.635Z,26.80
2022-08-03T19:02:00.132Z,26.80
2022-08-03T19:06:39.785Z,26.80
2022-08-03T19:12:12.693Z,26.80
2022-08-03T19:17:09.424Z,26.80
2022-08-03T19:22:15.937Z,26.80
2022-08-03T19:27:19.178Z,26.80
2022-08-03T19:32:29.621Z,26.80
2022-08-03T19:37:40.009Z,26.80
2022-08-03T19:42:45.695Z,26.80
2022-08-03T19:47:52.128Z,26.80
2022-08-03T19:52:55.332Z,26.80
2022-08-03T19:57:58.542Z,26.80
2022-08-03T20:03:00.581Z,26.80
2022-08-03T20:08:03.733Z,26.80
2022-08-03T20:13:05.871Z,26.80
2022-08-03T20:18:16.775Z,26.90
2022-08-03T20:23:19.820Z,26.80
2022-08-03T20:28:32.742Z,26.80
2022-08-03T20:33:45.839Z,26.80
2022-08-03T20:38:51.984Z,26.80
2022-08-03T20:43:53.996Z,26.80
2022-08-03T20:48:57.197Z,26.80
2022-08-03T20:54:03.036Z,26.80
2022-08-03T20:59:07.153Z,26.60
2022-08-03T21:04:20.859Z,26.50
2022-08-03T21:09:33.236Z,26.50
2022-08-03T21:14:39.397Z,26.60
2022-08-03T21:19:52.192Z,26.70
2022-08-03T21:24:56.263Z,26.70
2022-08-03T21:30:01.995Z,26.50
2022-08-03T21:35:03.857Z,26.60
2022-08-03T21:40:06.081Z,26.70
2022-08-03T21:45:11.869Z,26.50
2022-08-03T21:50:17.029Z,26.50
2022-08-03T21:55:20.671Z,26.40
2022-08-03T22:00:25.711Z,26.40
2022-08-03T22:05:42.467Z,26.40
2022-08-03T22:10:46.581Z,26.30
2022-08-03T22:15:48.777Z,26.10
2022-08-03T22:20:51.403Z,26.10
2022-08-03T22:25:53.378Z,26.00
2022-08-03T22:30:55.157Z,25.90
2022-08-03T22:35:57.401Z,26.00
2022-08-03T22:40:59.737Z,25.90
2022-08-03T22:46:09.616Z,25.90
2022-08-03T22:51:15.464Z,25.80
2022-08-03T22:56:17.089Z,25.80
2022-08-03T23:01:20.253Z,25.80
2022-08-03T23:06:23.313Z,25.50
2022-08-03T23:11:25.927Z,25.20
2022-08-03T23:16:29.151Z,25.10
2022-08-03T23:21:59.886Z,24.90
2022-08-03T23:26:53.480Z,25.10
2022-08-03T23:31:56.212Z,25.00
2022-08-03T23:36:59.494Z,25.00
2022-08-03T23:42:02.859Z,25.00
2022-08-03T23:47:04.557Z,25.10
2022-08-03T23:52:10.898Z,25.00
2022-08-03T23:57:15.618Z,25.10
